sensor_id;sensor_type;location;lat;lon;timestamp;temperature;humidity
37874;DHT22;23709;48.078;11.684;2023-03-23T00:02:14;9.70;89.40
37874;DHT22;23709;48.078;11.684;2023-03-23T00:04:47;9.70;88.50
37874;DHT22;23709;48.078;11.684;2023-03-23T00:07:22;9.80;88.90
37874;DHT22;23709;48.078;11.684;2023-03-23T00:09:55;9.80;89.60
37874;DHT22;23709;48.078;11.684;2023-03-23T00:12:30;9.70;89.60
37874;DHT22;23709;48.078;11.684;2023-03-23T00:15:08;9.70;90.50
37874;DHT22;23709;48.078;11.684;2023-03-23T00:17:40;9.70;90.60
37874;DHT22;23709;48.078;11.684;2023-03-23T00:20:12;9.70;90.30
37874;DHT22;23709;48.078;11.684;2023-03-23T00:22:45;9.80;90.00
37874;DHT22;23709;48.078;11.684;2023-03-23T00:25:17;9.70;90.60
37874;DHT22;23709;48.078;11.684;2023-03-23T00:27:50;9.60;91.20
37874;DHT22;23709;48.078;11.684;2023-03-23T00:30:22;9.60;91.10
37874;DHT22;23709;48.078;11.684;2023-03-23T00:32:55;9.60;91.00
37874;DHT22;23709;48.078;11.684;2023-03-23T00:35:27;9.70;91.00
37874;DHT22;23709;48.078;11.684;2023-03-23T00:37:59;9.70;91.20
37874;DHT22;23709;48.078;11.684;2023-03-23T00:40:32;9.70;91.10
37874;DHT22;23709;48.078;11.684;2023-03-23T00:43:07;9.70;91.10
37874;DHT22;23709;48.078;11.684;2023-03-23T00:45:41;9.70;91.00
37874;DHT22;23709;48.078;11.684;2023-03-23T00:48:13;9.80;91.00
37874;DHT22;23709;48.078;11.684;2023-03-23T00:50:46;9.80;91.10
37874;DHT22;23709;48.078;11.684;2023-03-23T00:53:19;9.70;91.50
37874;DHT22;23709;48.078;11.684;2023-03-23T00:55:51;9.60;92.10
37874;DHT22;23709;48.078;11.684;2023-03-23T00:58:23;9.50;93.00
37874;DHT22;23709;48.078;11.684;2023-03-23T01:00:56;9.50;93.80
37874;DHT22;23709;48.078;11.684;2023-03-23T01:03:29;9.40;94.40
37874;DHT22;23709;48.078;11.684;2023-03-23T01:06:05;9.40;94.50
37874;DHT22;23709;48.078;11.684;2023-03-23T01:08:42;9.50;94.40
37874;DHT22;23709;48.078;11.684;2023-03-23T01:11:18;9.40;94.80
37874;DHT22;23709;48.078;11.684;2023-03-23T01:13:51;9.50;95.00
37874;DHT22;23709;48.078;11.684;2023-03-23T01:16:24;9.60;94.60
37874;DHT22;23709;48.078;11.684;2023-03-23T01:18:57;9.60;94.80
37874;DHT22;23709;48.078;11.684;2023-03-23T01:21:30;9.50;94.50
37874;DHT22;23709;48.078;11.684;2023-03-23T01:24:02;9.50;95.50
37874;DHT22;23709;48.078;11.684;2023-03-23T01:26:35;9.50;95.20
37874;DHT22;23709;48.078;11.684;2023-03-23T01:29:07;9.50;96.10
37874;DHT22;23709;48.078;11.684;2023-03-23T01:31:39;9.50;95.60
37874;DHT22;23709;48.078;11.684;2023-03-23T01:34:12;9.50;96.30
37874;DHT22;23709;48.078;11.684;2023-03-23T01:36:44;9.40;96.60
37874;DHT22;23709;48.078;11.684;2023-03-23T01:39:16;9.50;96.80
37874;DHT22;23709;48.078;11.684;2023-03-23T01:41:49;9.50;96.90
37874;DHT22;23709;48.078;11.684;2023-03-23T01:47:10;9.50;96.90
37874;DHT22;23709;48.078;11.684;2023-03-23T01:49:44;9.40;97.30
37874;DHT22;23709;48.078;11.684;2023-03-23T01:52:24;9.40;97.70
37874;DHT22;23709;48.078;11.684;2023-03-23T01:55:03;9.40;97.90
37874;DHT22;23709;48.078;11.684;2023-03-23T01:57:37;9.40;97.30
37874;DHT22;23709;48.078;11.684;2023-03-23T02:00:10;9.50;97.50
37874;DHT22;23709;48.078;11.684;2023-03-23T02:02:55;9.50;98.30
37874;DHT22;23709;48.078;11.684;2023-03-23T02:05:33;9.50;97.40
37874;DHT22;23709;48.078;11.684;2023-03-23T02:08:17;9.40;98.40
37874;DHT22;23709;48.078;11.684;2023-03-23T02:10:51;9.40;99.60
37874;DHT22;23709;48.078;11.684;2023-03-23T02:13:24;9.30;99.70
37874;DHT22;23709;48.078;11.684;2023-03-23T02:16:21;9.30;99.90
37874;DHT22;23709;48.078;11.684;2023-03-23T02:22:15;9.20;99.90
37874;DHT22;23709;48.078;11.684;2023-03-23T02:28:05;9.10;99.90
37874;DHT22;23709;48.078;11.684;2023-03-23T02:36:43;9.00;99.90
37874;DHT22;23709;48.078;11.684;2023-03-23T02:39:25;9.00;99.90
37874;DHT22;23709;48.078;11.684;2023-03-23T02:42:02;9.00;99.90
37874;DHT22;23709;48.078;11.684;2023-03-23T02:44:47;9.00;99.90
37874;DHT22;23709;48.078;11.684;2023-03-23T02:47:23;8.90;99.90
37874;DHT22;23709;48.078;11.684;2023-03-23T02:49:58;8.90;99.90
37874;DHT22;23709;48.078;11.684;2023-03-23T02:52:32;8.90;99.90
37874;DHT22;23709;48.078;11.684;2023-03-23T02:55:07;8.80;99.90
37874;DHT22;23709;48.078;11.684;2023-03-23T02:57:40;8.80;99.90
37874;DHT22;23709;48.078;11.684;2023-03-23T03:00:16;8.80;99.90
37874;DHT22;23709;48.078;11.684;2023-03-23T03:02:53;9.00;99.90
37874;DHT22;23709;48.078;11.684;2023-03-23T03:08:30;8.80;99.90
37874;DHT22;23709;48.078;11.684;2023-03-23T03:11:09;8.70;99.90
37874;DHT22;23709;48.078;11.684;2023-03-23T03:17:24;8.90;99.90
37874;DHT22;23709;48.078;11.684;2023-03-23T03:20:01;8.90;99.90
37874;DHT22;23709;48.078;11.684;2023-03-23T03:22:41;8.80;99.90
37874;DHT22;23709;48.078;11.684;2023-03-23T03:25:16;8.80;99.90
37874;DHT22;23709;48.078;11.684;2023-03-23T03:27:51;8.80;99.90
37874;DHT22;23709;48.078;11.684;2023-03-23T03:30:35;8.90;99.90
37874;DHT22;23709;48.078;11.684;2023-03-23T03:33:09;8.90;99.90
37874;DHT22;23709;48.078;11.684;2023-03-23T03:35:44;8.90;99.90
37874;DHT22;23709;48.078;11.684;2023-03-23T03:38:17;8.90;99.90
37874;DHT22;23709;48.078;11.684;2023-03-23T03:40:50;9.00;99.90
37874;DHT22;23709;48.078;11.684;2023-03-23T03:43:22;9.00;99.90
37874;DHT22;23709;48.078;11.684;2023-03-23T03:45:55;9.00;99.90
37874;DHT22;23709;48.078;11.684;2023-03-23T03:48:28;8.90;99.90
37874;DHT22;23709;48.078;11.684;2023-03-23T03:51:01;8.80;99.90
37874;DHT22;23709;48.078;11.684;2023-03-23T03:53:38;8.70;99.90
37874;DHT22;23709;48.078;11.684;2023-03-23T03:56:10;8.70;99.90
37874;DHT22;23709;48.078;11.684;2023-03-23T03:58:49;8.70;99.90
37874;DHT22;23709;48.078;11.684;2023-03-23T04:01:30;8.60;99.90
37874;DHT22;23709;48.078;11.684;2023-03-23T04:04:03;8.70;99.90
37874;DHT22;23709;48.078;11.684;2023-03-23T04:06:41;8.70;99.90
37874;DHT22;23709;48.078;11.684;2023-03-23T04:09:13;8.80;99.90
37874;DHT22;23709;48.078;11.684;2023-03-23T04:11:46;8.90;99.90
37874;DHT22;23709;48.078;11.684;2023-03-23T04:14:45;8.70;99.90
37874;DHT22;23709;48.078;11.684;2023-03-23T04:17:18;8.60;99.90
37874;DHT22;23709;48.078;11.684;2023-03-23T04:19:54;8.50;99.90
37874;DHT22;23709;48.078;11.684;2023-03-23T04:22:33;8.50;99.90
37874;DHT22;23709;48.078;11.684;2023-03-23T04:25:06;8.50;99.90
37874;DHT22;23709;48.078;11.684;2023-03-23T04:27:41;8.50;99.90
37874;DHT22;23709;48.078;11.684;2023-03-23T04:30:21;8.70;99.90
37874;DHT22;23709;48.078;11.684;2023-03-23T04:33:06;8.60;99.90
37874;DHT22;23709;48.078;11.684;2023-03-23T04:35:39;8.60;99.90
37874;DHT22;23709;48.078;11.684;2023-03-23T04:38:23;8.50;99.90
37874;DHT22;23709;48.078;11.684;2023-03-23T04:41:03;8.60;99.90
37874;DHT22;23709;48.078;11.684;2023-03-23T04:43:58;8.70;99.90
37874;DHT22;23709;48.078;11.684;2023-03-23T04:46:49;8.70;99.90
37874;DHT22;23709;48.078;11.684;2023-03-23T04:49:24;8.70;99.90
37874;DHT22;23709;48.078;11.684;2023-03-23T04:52:05;8.60;99.90
37874;DHT22;23709;48.078;11.684;2023-03-23T04:54:47;8.60;99.90
37874;DHT22;23709;48.078;11.684;2023-03-23T04:57:20;8.50;99.90
37874;DHT22;23709;48.078;11.684;2023-03-23T05:00:12;8.60;99.90
37874;DHT22;23709;48.078;11.684;2023-03-23T05:02:52;8.70;99.90
37874;DHT22;23709;48.078;11.684;2023-03-23T05:05:30;8.80;99.90
37874;DHT22;23709;48.078;11.684;2023-03-23T05:08:09;8.80;99.90
37874;DHT22;23709;48.078;11.684;2023-03-23T05:10:53;8.90;99.90
37874;DHT22;23709;48.078;11.684;2023-03-23T05:13:28;8.70;99.90
37874;DHT22;23709;48.078;11.684;2023-03-23T05:16:04;8.80;99.90
37874;DHT22;23709;48.078;11.684;2023-03-23T05:18:39;8.70;99.90
37874;DHT22;23709;48.078;11.684;2023-03-23T05:21:14;8.60;99.90
37874;DHT22;23709;48.078;11.684;2023-03-23T05:23:52;8.70;99.90
37874;DHT22;23709;48.078;11.684;2023-03-23T05:26:27;8.70;99.90
37874;DHT22;23709;48.078;11.684;2023-03-23T05:29:08;8.70;99.90
37874;DHT22;23709;48.078;11.684;2023-03-23T05:31:53;8.80;99.90
37874;DHT22;23709;48.078;11.684;2023-03-23T05:34:28;8.80;99.90
37874;DHT22;23709;48.078;11.684;2023-03-23T05:37:06;8.80;99.90
37874;DHT22;23709;48.078;11.684;2023-03-23T05:39:55;8.80;99.90
37874;DHT22;23709;48.078;11.684;2023-03-23T05:42:34;8.80;99.90
37874;DHT22;23709;48.078;11.684;2023-03-23T05:45:16;8.90;99.90
37874;DHT22;23709;48.078;11.684;2023-03-23T05:47:50;8.90;99.90
37874;DHT22;23709;48.078;11.684;2023-03-23T05:50:25;8.90;99.90
37874;DHT22;23709;48.078;11.684;2023-03-23T05:52:58;8.90;99.90
37874;DHT22;23709;48.078;11.684;2023-03-23T05:55:31;8.90;99.90
37874;DHT22;23709;48.078;11.684;2023-03-23T05:58:12;8.90;99.90
37874;DHT22;23709;48.078;11.684;2023-03-23T06:00:48;8.90;99.90
37874;DHT22;23709;48.078;11.684;2023-03-23T06:03:32;9.00;99.90
37874;DHT22;23709;48.078;11.684;2023-03-23T06:06:27;9.00;99.90
37874;DHT22;23709;48.078;11.684;2023-03-23T06:09:10;9.00;99.90
37874;DHT22;23709;48.078;11.684;2023-03-23T06:12:15;9.00;99.90
37874;DHT22;23709;48.078;11.684;2023-03-23T06:14:54;9.10;99.90
37874;DHT22;23709;48.078;11.684;2023-03-23T06:17:35;9.20;99.90
37874;DHT22;23709;48.078;11.684;2023-03-23T06:20:08;9.20;99.90
37874;DHT22;23709;48.078;11.684;2023-03-23T06:22:44;9.20;99.90
37874;DHT22;23709;48.078;11.684;2023-03-23T06:25:26;9.30;99.90
37874;DHT22;23709;48.078;11.684;2023-03-23T06:28:02;9.40;99.90
37874;DHT22;23709;48.078;11.684;2023-03-23T06:30:37;9.50;99.90
37874;DHT22;23709;48.078;11.684;2023-03-23T06:33:10;9.40;99.90
37874;DHT22;23709;48.078;11.684;2023-03-23T06:36:19;9.40;99.90
37874;DHT22;23709;48.078;11.684;2023-03-23T06:39:14;9.50;99.90
37874;DHT22;23709;48.078;11.684;2023-03-23T06:42:11;9.50;99.90
37874;DHT22;23709;48.078;11.684;2023-03-23T06:44:50;9.70;99.90
37874;DHT22;23709;48.078;11.684;2023-03-23T06:47:23;9.70;99.90
37874;DHT22;23709;48.078;11.684;2023-03-23T06:49:57;9.70;99.90
37874;DHT22;23709;48.078;11.684;2023-03-23T06:52:32;9.80;99.90
37874;DHT22;23709;48.078;11.684;2023-03-23T06:55:04;9.90;99.90
37874;DHT22;23709;48.078;11.684;2023-03-23T06:57:38;10.00;99.90
37874;DHT22;23709;48.078;11.684;2023-03-23T07:00:11;10.00;99.90
37874;DHT22;23709;48.078;11.684;2023-03-23T07:02:47;10.00;99.90
37874;DHT22;23709;48.078;11.684;2023-03-23T07:05:20;10.00;99.90
37874;DHT22;23709;48.078;11.684;2023-03-23T07:07:54;10.00;99.90
37874;DHT22;23709;48.078;11.684;2023-03-23T07:10:35;10.10;99.90
37874;DHT22;23709;48.078;11.684;2023-03-23T07:13:09;10.20;99.90
37874;DHT22;23709;48.078;11.684;2023-03-23T07:15:50;10.30;99.90
37874;DHT22;23709;48.078;11.684;2023-03-23T07:18:23;10.30;99.90
37874;DHT22;23709;48.078;11.684;2023-03-23T07:20:57;10.40;99.90
37874;DHT22;23709;48.078;11.684;2023-03-23T07:23:34;10.50;99.90
37874;DHT22;23709;48.078;11.684;2023-03-23T07:26:13;10.60;99.90
37874;DHT22;23709;48.078;11.684;2023-03-23T07:28:54;10.70;99.90
37874;DHT22;23709;48.078;11.684;2023-03-23T07:31:33;10.80;99.90
37874;DHT22;23709;48.078;11.684;2023-03-23T07:34:06;10.90;99.90
37874;DHT22;23709;48.078;11.684;2023-03-23T07:36:48;11.00;99.30
37874;DHT22;23709;48.078;11.684;2023-03-23T07:39:21;11.20;98.50
37874;DHT22;23709;48.078;11.684;2023-03-23T07:41:59;11.30;99.90
37874;DHT22;23709;48.078;11.684;2023-03-23T07:44:53;11.40;98.50
37874;DHT22;23709;48.078;11.684;2023-03-23T07:47:25;11.60;97.40
37874;DHT22;23709;48.078;11.684;2023-03-23T07:50:06;11.80;95.80
37874;DHT22;23709;48.078;11.684;2023-03-23T07:52:42;12.00;95.10
37874;DHT22;23709;48.078;11.684;2023-03-23T07:55:14;12.10;94.10
37874;DHT22;23709;48.078;11.684;2023-03-23T07:58:03;12.30;93.20
37874;DHT22;23709;48.078;11.684;2023-03-23T08:00:36;12.40;92.40
37874;DHT22;23709;48.078;11.684;2023-03-23T08:03:10;12.60;92.30
37874;DHT22;23709;48.078;11.684;2023-03-23T08:06:01;12.70;91.60
37874;DHT22;23709;48.078;11.684;2023-03-23T08:09:12;12.90;91.40
37874;DHT22;23709;48.078;11.684;2023-03-23T08:12:05;13.10;90.10
37874;DHT22;23709;48.078;11.684;2023-03-23T08:15:01;13.30;90.20
37874;DHT22;23709;48.078;11.684;2023-03-23T08:17:52;13.50;89.00
37874;DHT22;23709;48.078;11.684;2023-03-23T08:20:44;13.60;87.10
37874;DHT22;23709;48.078;11.684;2023-03-23T08:23:36;13.60;86.60
37874;DHT22;23709;48.078;11.684;2023-03-23T08:26:35;13.70;84.80
37874;DHT22;23709;48.078;11.684;2023-03-23T08:29:18;13.80;83.90
37874;DHT22;23709;48.078;11.684;2023-03-23T08:32:04;14.00;83.80
37874;DHT22;23709;48.078;11.684;2023-03-23T08:34:55;14.00;82.30
37874;DHT22;23709;48.078;11.684;2023-03-23T08:37:57;14.10;81.70
37874;DHT22;23709;48.078;11.684;2023-03-23T08:40:48;14.10;80.60
37874;DHT22;23709;48.078;11.684;2023-03-23T08:44:00;14.10;81.10
37874;DHT22;23709;48.078;11.684;2023-03-23T08:46:35;14.20;80.80
37874;DHT22;23709;48.078;11.684;2023-03-23T08:49:08;14.30;80.00
37874;DHT22;23709;48.078;11.684;2023-03-23T08:52:12;14.40;80.60
37874;DHT22;23709;48.078;11.684;2023-03-23T08:55:03;14.50;78.40
37874;DHT22;23709;48.078;11.684;2023-03-23T08:57:58;14.60;77.00
37874;DHT22;23709;48.078;11.684;2023-03-23T09:00:59;14.70;76.30
37874;DHT22;23709;48.078;11.684;2023-03-23T09:03:53;14.70;76.10
37874;DHT22;23709;48.078;11.684;2023-03-23T09:06:42;14.80;75.80
37874;DHT22;23709;48.078;11.684;2023-03-23T09:09:16;14.80;75.80
37874;DHT22;23709;48.078;11.684;2023-03-23T09:11:49;14.90;75.90
37874;DHT22;23709;48.078;11.684;2023-03-23T09:14:21;15.00;75.70
37874;DHT22;23709;48.078;11.684;2023-03-23T09:16:54;15.10;74.50
37874;DHT22;23709;48.078;11.684;2023-03-23T09:19:26;15.10;74.30
37874;DHT22;23709;48.078;11.684;2023-03-23T09:21:59;15.20;73.30
37874;DHT22;23709;48.078;11.684;2023-03-23T09:24:32;15.40;73.30
37874;DHT22;23709;48.078;11.684;2023-03-23T09:27:04;15.40;73.30
37874;DHT22;23709;48.078;11.684;2023-03-23T09:29:37;15.40;74.20
37874;DHT22;23709;48.078;11.684;2023-03-23T09:32:10;15.50;74.80
37874;DHT22;23709;48.078;11.684;2023-03-23T09:34:42;15.50;72.70
37874;DHT22;23709;48.078;11.684;2023-03-23T09:37:15;15.50;69.50
37874;DHT22;23709;48.078;11.684;2023-03-23T09:39:48;15.50;70.70
37874;DHT22;23709;48.078;11.684;2023-03-23T09:49:15;15.80;71.70
37874;DHT22;23709;48.078;11.684;2023-03-23T09:52:03;15.80;71.20
37874;DHT22;23709;48.078;11.684;2023-03-23T09:54:39;15.90;71.40
37874;DHT22;23709;48.078;11.684;2023-03-23T09:57:25;16.00;72.10
37874;DHT22;23709;48.078;11.684;2023-03-23T10:00:14;16.20;70.50
37874;DHT22;23709;48.078;11.684;2023-03-23T10:02:56;16.30;70.10
37874;DHT22;23709;48.078;11.684;2023-03-23T10:05:37;16.40;71.20
37874;DHT22;23709;48.078;11.684;2023-03-23T10:08:17;16.60;70.20
37874;DHT22;23709;48.078;11.684;2023-03-23T10:11:01;16.70;68.50
37874;DHT22;23709;48.078;11.684;2023-03-23T10:16:28;17.00;66.90
37874;DHT22;23709;48.078;11.684;2023-03-23T10:19:10;17.00;67.60
37874;DHT22;23709;48.078;11.684;2023-03-23T10:21:50;17.10;67.70
37874;DHT22;23709;48.078;11.684;2023-03-23T10:24:31;17.00;64.10
37874;DHT22;23709;48.078;11.684;2023-03-23T10:27:10;17.00;63.90
37874;DHT22;23709;48.078;11.684;2023-03-23T10:29:55;17.00;63.40
37874;DHT22;23709;48.078;11.684;2023-03-23T10:33:01;16.90;63.30
37874;DHT22;23709;48.078;11.684;2023-03-23T10:38:34;16.80;63.50
37874;DHT22;23709;48.078;11.684;2023-03-23T10:41:17;16.80;64.00
37874;DHT22;23709;48.078;11.684;2023-03-23T10:43:49;16.70;65.30
37874;DHT22;23709;48.078;11.684;2023-03-23T10:46:45;16.80;64.40
37874;DHT22;23709;48.078;11.684;2023-03-23T10:49:24;16.70;65.20
37874;DHT22;23709;48.078;11.684;2023-03-23T10:54:50;16.60;66.20
37874;DHT22;23709;48.078;11.684;2023-03-23T10:57:27;16.60;66.60
37874;DHT22;23709;48.078;11.684;2023-03-23T11:00:05;16.60;66.10
37874;DHT22;23709;48.078;11.684;2023-03-23T11:02:41;16.80;65.70
37874;DHT22;23709;48.078;11.684;2023-03-23T11:05:20;16.70;65.40
37874;DHT22;23709;48.078;11.684;2023-03-23T11:07:56;16.80;65.40
37874;DHT22;23709;48.078;11.684;2023-03-23T11:10:39;16.80;65.20
37874;DHT22;23709;48.078;11.684;2023-03-23T11:13:15;16.90;66.20
37874;DHT22;23709;48.078;11.684;2023-03-23T11:15:49;16.90;66.40
37874;DHT22;23709;48.078;11.684;2023-03-23T11:20:57;16.90;66.10
37874;DHT22;23709;48.078;11.684;2023-03-23T11:23:34;16.90;65.90
37874;DHT22;23709;48.078;11.684;2023-03-23T11:28:57;17.10;66.40
37874;DHT22;23709;48.078;11.684;2023-03-23T11:31:33;17.10;65.00
37874;DHT22;23709;48.078;11.684;2023-03-23T11:34:16;17.10;64.60
37874;DHT22;23709;48.078;11.684;2023-03-23T11:37:13;17.10;66.00
37874;DHT22;23709;48.078;11.684;2023-03-23T11:45:32;17.30;64.80
37874;DHT22;23709;48.078;11.684;2023-03-23T11:50:56;17.60;61.20
37874;DHT22;23709;48.078;11.684;2023-03-23T11:58:50;18.00;59.50
37874;DHT22;23709;48.078;11.684;2023-03-23T12:01:43;18.10;59.50
37874;DHT22;23709;48.078;11.684;2023-03-23T12:12:35;18.80;57.80
37874;DHT22;23709;48.078;11.684;2023-03-23T12:20:54;19.80;54.30
37874;DHT22;23709;48.078;11.684;2023-03-23T12:26:15;19.40;55.80
37874;DHT22;23709;48.078;11.684;2023-03-23T12:29:24;19.30;57.00
37874;DHT22;23709;48.078;11.684;2023-03-23T12:43:31;19.00;56.00
37874;DHT22;23709;48.078;11.684;2023-03-23T12:46:45;19.00;56.00
37874;DHT22;23709;48.078;11.684;2023-03-23T12:49:45;19.10;54.30
37874;DHT22;23709;48.078;11.684;2023-03-23T12:52:25;19.20;53.30
37874;DHT22;23709;48.078;11.684;2023-03-23T13:08:53;19.10;52.10
37874;DHT22;23709;48.078;11.684;2023-03-23T13:11:35;19.00;51.70
37874;DHT22;23709;48.078;11.684;2023-03-23T13:25:21;18.70;51.60
37874;DHT22;23709;48.078;11.684;2023-03-23T13:28:00;18.60;52.60
37874;DHT22;23709;48.078;11.684;2023-03-23T13:30:35;18.60;51.00
37874;DHT22;23709;48.078;11.684;2023-03-23T13:33:12;18.50;52.50
37874;DHT22;23709;48.078;11.684;2023-03-23T13:35:45;18.50;51.60
37874;DHT22;23709;48.078;11.684;2023-03-23T13:40:53;18.60;52.40
37874;DHT22;23709;48.078;11.684;2023-03-23T13:43:32;18.60;52.10
37874;DHT22;23709;48.078;11.684;2023-03-23T13:46:31;18.60;51.70
37874;DHT22;23709;48.078;11.684;2023-03-23T13:49:23;18.60;52.20
37874;DHT22;23709;48.078;11.684;2023-03-23T13:52:14;18.70;52.20
37874;DHT22;23709;48.078;11.684;2023-03-23T13:54:48;18.60;52.50
37874;DHT22;23709;48.078;11.684;2023-03-23T13:57:48;18.60;52.90
37874;DHT22;23709;48.078;11.684;2023-03-23T14:05:49;18.80;53.90
37874;DHT22;23709;48.078;11.684;2023-03-23T14:11:24;18.90;53.70
37874;DHT22;23709;48.078;11.684;2023-03-23T14:14:05;18.80;53.60
37874;DHT22;23709;48.078;11.684;2023-03-23T14:16:40;18.90;54.10
37874;DHT22;23709;48.078;11.684;2023-03-23T14:19:28;18.80;54.80
37874;DHT22;23709;48.078;11.684;2023-03-23T14:22:04;18.70;54.40
37874;DHT22;23709;48.078;11.684;2023-03-23T14:24:40;18.70;55.40
37874;DHT22;23709;48.078;11.684;2023-03-23T14:27:21;18.80;55.50
37874;DHT22;23709;48.078;11.684;2023-03-23T14:30:06;18.90;54.50
37874;DHT22;23709;48.078;11.684;2023-03-23T14:32:39;18.70;55.30
37874;DHT22;23709;48.078;11.684;2023-03-23T14:37:56;18.60;56.80
37874;DHT22;23709;48.078;11.684;2023-03-23T14:40:29;18.40;56.90
37874;DHT22;23709;48.078;11.684;2023-03-23T14:43:03;18.50;57.20
37874;DHT22;23709;48.078;11.684;2023-03-23T14:45:38;18.50;56.90
37874;DHT22;23709;48.078;11.684;2023-03-23T14:48:14;18.50;57.10
37874;DHT22;23709;48.078;11.684;2023-03-23T14:51:02;18.60;56.90
37874;DHT22;23709;48.078;11.684;2023-03-23T14:53:38;18.60;56.70
37874;DHT22;23709;48.078;11.684;2023-03-23T14:56:13;18.60;57.20
37874;DHT22;23709;48.078;11.684;2023-03-23T14:58:47;18.50;57.10
37874;DHT22;23709;48.078;11.684;2023-03-23T15:01:25;18.50;56.70
37874;DHT22;23709;48.078;11.684;2023-03-23T15:06:36;18.30;56.70
37874;DHT22;23709;48.078;11.684;2023-03-23T15:09:15;18.20;57.50
37874;DHT22;23709;48.078;11.684;2023-03-23T15:11:59;18.20;57.10
37874;DHT22;23709;48.078;11.684;2023-03-23T15:14:46;18.10;58.70
37874;DHT22;23709;48.078;11.684;2023-03-23T15:17:24;18.00;58.60
37874;DHT22;23709;48.078;11.684;2023-03-23T15:19:57;18.00;58.40
37874;DHT22;23709;48.078;11.684;2023-03-23T15:22:32;18.00;58.30
37874;DHT22;23709;48.078;11.684;2023-03-23T15:27:55;17.80;58.30
37874;DHT22;23709;48.078;11.684;2023-03-23T15:30:31;17.80;58.80
37874;DHT22;23709;48.078;11.684;2023-03-23T15:33:10;17.80;59.20
37874;DHT22;23709;48.078;11.684;2023-03-23T15:35:49;17.70;60.00
37874;DHT22;23709;48.078;11.684;2023-03-23T15:38:26;17.80;59.70
37874;DHT22;23709;48.078;11.684;2023-03-23T15:41:23;17.70;60.40
37874;DHT22;23709;48.078;11.684;2023-03-23T15:43:58;17.70;59.80
37874;DHT22;23709;48.078;11.684;2023-03-23T15:46:31;17.60;60.10
37874;DHT22;23709;48.078;11.684;2023-03-23T15:49:11;17.60;60.40
37874;DHT22;23709;48.078;11.684;2023-03-23T15:51:45;17.50;60.00
37874;DHT22;23709;48.078;11.684;2023-03-23T15:54:18;17.40;60.90
37874;DHT22;23709;48.078;11.684;2023-03-23T15:56:50;17.40;61.10
37874;DHT22;23709;48.078;11.684;2023-03-23T15:59:22;17.30;61.20
37874;DHT22;23709;48.078;11.684;2023-03-23T16:01:55;17.30;61.40
37874;DHT22;23709;48.078;11.684;2023-03-23T16:04:28;17.20;61.00
37874;DHT22;23709;48.078;11.684;2023-03-23T16:07:01;17.20;61.30
37874;DHT22;23709;48.078;11.684;2023-03-23T16:09:33;17.20;61.40
37874;DHT22;23709;48.078;11.684;2023-03-23T16:12:09;17.10;62.10
37874;DHT22;23709;48.078;11.684;2023-03-23T16:14:43;17.00;62.00
37874;DHT22;23709;48.078;11.684;2023-03-23T16:17:18;16.90;62.60
37874;DHT22;23709;48.078;11.684;2023-03-23T16:19:51;16.90;62.70
37874;DHT22;23709;48.078;11.684;2023-03-23T16:22:23;16.90;62.50
37874;DHT22;23709;48.078;11.684;2023-03-23T16:24:55;16.80;62.90
37874;DHT22;23709;48.078;11.684;2023-03-23T16:27:28;16.80;63.30
37874;DHT22;23709;48.078;11.684;2023-03-23T16:30:00;16.70;65.00
37874;DHT22;23709;48.078;11.684;2023-03-23T16:32:35;16.60;67.10
37874;DHT22;23709;48.078;11.684;2023-03-23T16:35:06;16.60;70.50
37874;DHT22;23709;48.078;11.684;2023-03-23T16:37:50;16.50;67.20
37874;DHT22;23709;48.078;11.684;2023-03-23T16:40:39;16.40;70.40
37874;DHT22;23709;48.078;11.684;2023-03-23T16:43:12;16.30;69.10
37874;DHT22;23709;48.078;11.684;2023-03-23T16:45:45;16.20;70.00
37874;DHT22;23709;48.078;11.684;2023-03-23T16:48:18;16.10;72.20
37874;DHT22;23709;48.078;11.684;2023-03-23T16:50:51;16.10;73.50
37874;DHT22;23709;48.078;11.684;2023-03-23T16:53:23;16.00;72.80
37874;DHT22;23709;48.078;11.684;2023-03-23T16:55:56;15.90;74.20
37874;DHT22;23709;48.078;11.684;2023-03-23T16:58:29;15.90;76.60
37874;DHT22;23709;48.078;11.684;2023-03-23T17:01:02;15.90;77.20
37874;DHT22;23709;48.078;11.684;2023-03-23T17:03:35;15.80;76.10
37874;DHT22;23709;48.078;11.684;2023-03-23T17:06:08;15.70;77.10
37874;DHT22;23709;48.078;11.684;2023-03-23T17:08:40;15.70;77.70
37874;DHT22;23709;48.078;11.684;2023-03-23T17:11:12;15.60;77.00
37874;DHT22;23709;48.078;11.684;2023-03-23T17:13:45;15.60;77.20
37874;DHT22;23709;48.078;11.684;2023-03-23T17:16:17;15.60;76.90
37874;DHT22;23709;48.078;11.684;2023-03-23T17:18:49;15.60;76.50
37874;DHT22;23709;48.078;11.684;2023-03-23T17:21:21;15.60;75.80
37874;DHT22;23709;48.078;11.684;2023-03-23T17:23:56;15.60;75.80
37874;DHT22;23709;48.078;11.684;2023-03-23T17:26:29;15.70;75.60
37874;DHT22;23709;48.078;11.684;2023-03-23T17:29:02;15.60;75.40
37874;DHT22;23709;48.078;11.684;2023-03-23T17:31:35;15.70;75.40
37874;DHT22;23709;48.078;11.684;2023-03-23T17:34:08;15.60;76.50
37874;DHT22;23709;48.078;11.684;2023-03-23T17:36:40;15.70;77.50
37874;DHT22;23709;48.078;11.684;2023-03-23T17:39:12;15.60;76.80
37874;DHT22;23709;48.078;11.684;2023-03-23T17:41:44;15.60;76.50
37874;DHT22;23709;48.078;11.684;2023-03-23T17:44:17;15.60;75.20
37874;DHT22;23709;48.078;11.684;2023-03-23T17:46:49;15.40;75.60
37874;DHT22;23709;48.078;11.684;2023-03-23T17:49:23;15.40;76.40
37874;DHT22;23709;48.078;11.684;2023-03-23T17:51:58;15.30;76.10
37874;DHT22;23709;48.078;11.684;2023-03-23T17:54:31;15.30;76.20
37874;DHT22;23709;48.078;11.684;2023-03-23T17:57:03;15.30;76.30
37874;DHT22;23709;48.078;11.684;2023-03-23T17:59:35;15.30;76.20
37874;DHT22;23709;48.078;11.684;2023-03-23T18:02:09;15.30;77.00
37874;DHT22;23709;48.078;11.684;2023-03-23T18:04:41;15.40;76.70
37874;DHT22;23709;48.078;11.684;2023-03-23T18:07:14;15.20;78.90
37874;DHT22;23709;48.078;11.684;2023-03-23T18:09:46;15.20;78.20
37874;DHT22;23709;48.078;11.684;2023-03-23T18:12:19;15.10;77.90
37874;DHT22;23709;48.078;11.684;2023-03-23T18:14:55;15.00;79.00
37874;DHT22;23709;48.078;11.684;2023-03-23T18:17:27;14.90;79.10
37874;DHT22;23709;48.078;11.684;2023-03-23T18:20:00;14.90;79.60
37874;DHT22;23709;48.078;11.684;2023-03-23T18:22:32;14.90;79.20
37874;DHT22;23709;48.078;11.684;2023-03-23T18:25:05;14.90;79.20
37874;DHT22;23709;48.078;11.684;2023-03-23T18:27:39;14.80;80.50
37874;DHT22;23709;48.078;11.684;2023-03-23T18:30:13;14.80;80.70
37874;DHT22;23709;48.078;11.684;2023-03-23T18:32:48;14.80;80.00
37874;DHT22;23709;48.078;11.684;2023-03-23T18:35:22;14.80;80.60
37874;DHT22;23709;48.078;11.684;2023-03-23T18:37:56;14.80;80.40
37874;DHT22;23709;48.078;11.684;2023-03-23T18:40:30;14.80;81.80